createdAt,value
2017-07-06T00:01:30.081Z,18.60
2017-07-06T00:03:57.639Z,18.50
2017-07-06T00:06:25.184Z,18.50
2017-07-06T00:08:58.573Z,18.50
2017-07-06T00:11:31.565Z,18.50
2017-07-06T00:14:03.608Z,18.50
2017-07-06T00:16:31.169Z,18.50
2017-07-06T00:18:59.469Z,18.50
2017-07-06T00:21:27.005Z,18.40
2017-07-06T00:24:00.175Z,18.30
2017-07-06T00:26:33.164Z,18.20
2017-07-06T00:29:02.592Z,18.20
2017-07-06T00:31:31.255Z,18.20
2017-07-06T00:33:59.362Z,18.10
2017-07-06T00:36:31.506Z,18.00
2017-07-06T00:39:02.746Z,18.00
2017-07-06T00:41:36.200Z,17.90
2017-07-06T00:44:03.733Z,17.90
2017-07-06T00:46:32.694Z,17.80
2017-07-06T00:49:02.343Z,17.80
2017-07-06T00:51:29.946Z,17.80
2017-07-06T00:54:01.285Z,17.80
2017-07-06T00:56:32.374Z,17.80
2017-07-06T00:58:59.932Z,17.80
2017-07-06T01:01:27.475Z,17.80
2017-07-06T01:03:57.429Z,17.80
2017-07-06T01:06:24.969Z,17.80
2017-07-06T01:08:52.501Z,17.80
2017-07-06T01:11:22.520Z,17.80
2017-07-06T01:13:50.045Z,17.80
2017-07-06T01:16:18.004Z,17.80
2017-07-06T01:18:45.540Z,17.80
2017-07-06T01:21:13.091Z,17.70
2017-07-06T01:23:40.637Z,17.70
2017-07-06T01:26:08.225Z,17.70
2017-07-06T01:28:35.773Z,17.70
2017-07-06T01:31:05.416Z,17.70
2017-07-06T01:33:35.352Z,17.60
2017-07-06T01:36:06.338Z,17.60
2017-07-06T01:38:37.017Z,17.60
2017-07-06T01:41:04.568Z,17.60
2017-07-06T01:43:32.521Z,17.60
2017-07-06T01:46:04.345Z,17.60
2017-07-06T01:48:31.906Z,17.60
2017-07-06T01:51:00.798Z,17.50
2017-07-06T01:53:28.356Z,17.50
2017-07-06T01:55:55.903Z,17.50
2017-07-06T01:58:30.630Z,17.50
2017-07-06T02:00:58.174Z,17.40
2017-07-06T02:03:25.712Z,17.40
2017-07-06T02:05:55.518Z,17.40
2017-07-06T02:08:23.056Z,17.30
2017-07-06T02:10:51.490Z,17.30
2017-07-06T02:13:22.697Z,17.20
2017-07-06T02:15:50.265Z,17.20
2017-07-06T02:18:17.805Z,17.10
2017-07-06T02:20:47.528Z,17.00
2017-07-06T02:23:25.313Z,17.00
2017-07-06T02:25:53.236Z,17.00
2017-07-06T02:28:25.576Z,17.00
2017-07-06T02:30:53.105Z,16.90
2017-07-06T02:33:23.534Z,16.90
2017-07-06T02:35:55.608Z,16.80
2017-07-06T02:38:26.440Z,16.90
2017-07-06T02:40:56.552Z,16.80
2017-07-06T02:43:24.497Z,16.70
2017-07-06T02:45:52.050Z,16.70
2017-07-06T02:48:19.579Z,16.70
2017-07-06T02:50:48.653Z,16.60
2017-07-06T02:53:16.724Z,16.60
2017-07-06T02:55:44.277Z,16.60
2017-07-06T02:58:11.808Z,16.60
2017-07-06T03:00:39.419Z,16.50
2017-07-06T03:03:06.954Z,16.50
2017-07-06T03:05:34.497Z,16.50
2017-07-06T03:08:02.785Z,16.50
2017-07-06T03:10:33.708Z,16.50
2017-07-06T03:13:01.661Z,16.40
2017-07-06T03:15:31.590Z,16.50
2017-07-06T03:18:00.255Z,16.50
2017-07-06T03:20:31.667Z,16.50
2017-07-06T03:22:59.945Z,16.50
2017-07-06T03:25:27.492Z,16.40
2017-07-06T03:27:55.020Z,16.40
2017-07-06T03:30:23.686Z,16.30
2017-07-06T03:32:51.617Z,16.20
2017-07-06T03:35:19.168Z,16.20
2017-07-06T03:37:46.700Z,16.20
2017-07-06T03:40:14.306Z,16.10
2017-07-06T03:42:41.857Z,16.10
2017-07-06T03:45:09.387Z,16.00
2017-07-06T03:47:37.963Z,16.00
2017-07-06T03:50:05.491Z,15.90
2017-07-06T03:52:36.736Z,16.00
2017-07-06T03:55:04.677Z,15.90
2017-07-06T03:57:32.217Z,15.90
2017-07-06T03:59:59.751Z,15.90
2017-07-06T04:02:30.045Z,15.90
2017-07-06T04:04:58.147Z,15.90
2017-07-06T04:07:30.834Z,15.90
2017-07-06T04:09:58.380Z,15.90
2017-07-06T04:12:25.916Z,16.00
2017-07-06T04:14:53.476Z,16.00
2017-07-06T04:17:21.431Z,16.00
2017-07-06T04:19:49.385Z,16.00
2017-07-06T04:22:16.940Z,16.00
2017-07-06T04:24:48.382Z,16.10
2017-07-06T04:27:22.494Z,16.00
2017-07-06T04:29:56.499Z,16.00
2017-07-06T04:32:29.224Z,16.00
2017-07-06T04:34:56.802Z,16.00
2017-07-06T04:37:24.347Z,16.10
2017-07-06T04:39:55.321Z,16.10
2017-07-06T04:42:22.851Z,16.10
2017-07-06T04:44:53.035Z,16.10
2017-07-06T04:47:25.018Z,16.10
2017-07-06T04:49:52.566Z,16.20
2017-07-06T04:52:21.071Z,16.10
2017-07-06T04:54:52.915Z,16.10
2017-07-06T04:57:20.441Z,16.20
2017-07-06T04:59:50.689Z,16.20
2017-07-06T05:02:25.966Z,16.30
2017-07-06T05:04:53.523Z,16.30
2017-07-06T05:07:23.121Z,16.40
2017-07-06T05:09:50.667Z,16.40
2017-07-06T05:12:18.225Z,16.50
2017-07-06T05:14:46.093Z,16.50
2017-07-06T05:17:13.654Z,16.60
2017-07-06T05:19:41.190Z,16.60
2017-07-06T05:22:09.146Z,16.90
2017-07-06T05:24:40.470Z,16.80
2017-07-06T05:27:10.899Z,17.00
2017-07-06T05:29:38.466Z,17.20
2017-07-06T05:32:08.689Z,17.30
2017-07-06T05:34:36.246Z,17.50
2017-07-06T05:37:03.772Z,17.70
2017-07-06T05:39:31.329Z,18.00
2017-07-06T05:41:59.678Z,18.30
2017-07-06T05:44:31.707Z,18.60
2017-07-06T05:47:00.436Z,18.90
2017-07-06T05:49:28.026Z,19.10
2017-07-06T05:51:55.571Z,19.30
2017-07-06T05:54:23.108Z,19.50
2017-07-06T05:56:50.722Z,19.70
2017-07-06T05:59:18.275Z,19.80
2017-07-06T06:01:45.828Z,20.00
2017-07-06T06:04:17.515Z,20.10
2017-07-06T06:06:45.483Z,20.30
2017-07-06T06:09:13.426Z,20.50
2017-07-06T06:11:43.597Z,20.50
2017-07-06T06:14:13.820Z,20.60
2017-07-06T06:16:41.376Z,20.70
2017-07-06T06:19:08.941Z,20.90
2017-07-06T06:21:36.464Z,21.10
2017-07-06T06:24:04.420Z,21.20
2017-07-06T06:26:31.958Z,21.20
2017-07-06T06:29:01.157Z,21.30
2017-07-06T06:31:29.312Z,21.40
2017-07-06T06:33:59.325Z,21.50
2017-07-06T06:36:26.879Z,21.50
2017-07-06T06:38:57.323Z,21.60
2017-07-06T06:41:24.873Z,21.70
2017-07-06T06:43:52.425Z,21.80
2017-07-06T06:46:19.983Z,21.80
2017-07-06T06:48:47.547Z,21.90
2017-07-06T06:51:15.164Z,22.20
2017-07-06T06:53:42.681Z,22.30
2017-07-06T06:56:10.255Z,22.50
2017-07-06T06:58:37.830Z,22.60
2017-07-06T07:01:05.758Z,22.80
2017-07-06T07:03:33.326Z,22.80
2017-07-06T07:06:01.728Z,23.00
2017-07-06T07:08:29.345Z,23.10
2017-07-06T07:10:56.933Z,23.30
2017-07-06T07:13:24.501Z,23.40
2017-07-06T07:15:52.458Z,23.60
2017-07-06T07:18:20.041Z,23.60
2017-07-06T07:20:47.628Z,23.60
2017-07-06T07:23:17.129Z,23.70
2017-07-06T07:25:44.718Z,23.80
2017-07-06T07:28:12.258Z,23.90
2017-07-06T07:30:39.811Z,24.10
2017-07-06T07:33:07.351Z,24.20
2017-07-06T07:35:34.938Z,24.40
2017-07-06T07:38:03.092Z,24.40
2017-07-06T07:40:32.992Z,24.50
2017-07-06T07:43:01.770Z,24.60
2017-07-06T07:45:30.740Z,24.50
2017-07-06T07:47:58.320Z,24.50
2017-07-06T07:50:26.284Z,24.70
2017-07-06T07:52:54.258Z,24.90
2017-07-06T07:55:22.207Z,25.00
2017-07-06T07:57:49.776Z,25.00
2017-07-06T08:00:20.022Z,25.10
2017-07-06T08:02:47.562Z,25.10
2017-07-06T08:05:15.568Z,24.90
2017-07-06T08:07:43.104Z,24.90
2017-07-06T08:10:11.052Z,25.00
2017-07-06T08:12:38.633Z,25.00
2017-07-06T08:15:06.205Z,25.00
2017-07-06T08:17:33.744Z,25.00
2017-07-06T08:20:01.325Z,25.00
2017-07-06T08:22:29.309Z,25.10
2017-07-06T08:24:57.185Z,25.20
2017-07-06T08:27:24.753Z,25.30
2017-07-06T08:29:52.301Z,25.40
2017-07-06T08:32:19.855Z,25.50
2017-07-06T08:34:47.387Z,25.40
2017-07-06T08:37:14.954Z,25.40
2017-07-06T08:39:42.526Z,25.50
2017-07-06T08:42:10.089Z,25.60
2017-07-06T08:44:37.617Z,25.70
2017-07-06T08:47:05.152Z,25.80
2017-07-06T08:49:32.716Z,25.80
2017-07-06T08:52:01.779Z,26.00
2017-07-06T08:54:29.324Z,26.00
2017-07-06T08:56:56.950Z,25.90
2017-07-06T08:59:24.515Z,25.80
2017-07-06T09:01:52.069Z,25.80
2017-07-06T09:04:19.636Z,25.80
2017-07-06T09:06:47.195Z,25.90
2017-07-06T09:09:14.753Z,26.00
2017-07-06T09:11:42.470Z,26.20
2017-07-06T09:14:10.024Z,26.40
2017-07-06T09:16:37.580Z,26.50
2017-07-06T09:19:05.137Z,26.70
2017-07-06T09:21:32.710Z,26.70
2017-07-06T09:24:00.993Z,26.80
2017-07-06T09:26:29.369Z,27.20
2017-07-06T09:28:56.934Z,27.20
2017-07-06T09:31:24.858Z,27.40
2017-07-06T09:33:52.433Z,27.40
2017-07-06T09:36:20.000Z,27.40
2017-07-06T09:38:47.575Z,27.40
2017-07-06T09:41:15.124Z,27.40
2017-07-06T09:43:42.711Z,27.30
2017-07-06T09:46:10.251Z,27.30
2017-07-06T09:48:37.811Z,27.30
2017-07-06T09:51:05.337Z,27.30
2017-07-06T09:53:32.898Z,27.50
2017-07-06T09:56:01.434Z,27.60
2017-07-06T09:58:29.963Z,27.50
2017-07-06T10:00:57.521Z,27.50
2017-07-06T10:03:25.077Z,27.70
2017-07-06T10:05:52.649Z,27.70
2017-07-06T10:08:20.180Z,27.80
2017-07-06T10:10:47.737Z,27.90
2017-07-06T10:13:15.295Z,28.00
2017-07-06T10:15:43.870Z,28.10
2017-07-06T10:18:15.297Z,28.10
2017-07-06T10:20:42.852Z,28.20
2017-07-06T10:23:10.405Z,28.20
2017-07-06T10:25:37.947Z,28.20
2017-07-06T10:28:05.917Z,28.20
2017-07-06T10:30:33.454Z,28.20
2017-07-06T10:33:01.015Z,28.20
2017-07-06T10:35:28.555Z,28.20
2017-07-06T10:37:56.090Z,28.30
2017-07-06T10:40:23.654Z,28.40
2017-07-06T10:42:51.200Z,28.50
2017-07-06T10:45:18.763Z,28.60
2017-07-06T10:47:46.296Z,28.70
2017-07-06T10:50:13.862Z,28.80
2017-07-06T10:52:41.415Z,28.90
2017-07-06T10:55:08.949Z,29.10
2017-07-06T10:57:36.894Z,29.30
2017-07-06T11:00:04.488Z,29.30
2017-07-06T11:02:32.436Z,29.40
2017-07-06T11:04:59.991Z,29.40
2017-07-06T11:07:27.544Z,29.40
2017-07-06T11:09:55.086Z,29.50
2017-07-06T11:12:22.636Z,29.40
2017-07-06T11:14:50.179Z,29.40
2017-07-06T11:17:17.719Z,29.30
2017-07-06T11:19:45.705Z,29.00
2017-07-06T11:22:24.295Z,28.80
2017-07-06T11:24:51.834Z,29.00
2017-07-06T11:27:19.761Z,29.30
2017-07-06T11:29:47.300Z,29.30
2017-07-06T11:32:14.844Z,29.50
2017-07-06T11:34:42.373Z,29.60
2017-07-06T11:37:10.385Z,29.80
2017-07-06T11:39:37.937Z,29.80
2017-07-06T11:42:05.494Z,29.80
2017-07-06T11:44:33.025Z,29.80
2017-07-06T11:47:00.589Z,29.80
2017-07-06T11:49:28.134Z,29.90
2017-07-06T11:51:56.464Z,30.10
2017-07-06T11:54:24.025Z,30.10
2017-07-06T11:56:51.562Z,30.20
2017-07-06T11:59:19.133Z,30.20
2017-07-06T12:01:46.681Z,30.30
2017-07-06T12:04:14.242Z,30.30
2017-07-06T12:06:41.777Z,30.20
2017-07-06T12:09:09.348Z,30.10
2017-07-06T12:11:36.875Z,29.90
2017-07-06T12:14:04.396Z,29.80
2017-07-06T12:16:32.037Z,29.80
2017-07-06T12:18:59.565Z,29.80
2017-07-06T12:21:27.524Z,30.00
2017-07-06T12:23:55.457Z,30.00
2017-07-06T12:26:24.026Z,30.00
2017-07-06T12:28:51.570Z,29.90
2017-07-06T12:31:19.125Z,29.90
2017-07-06T12:33:46.685Z,29.80
2017-07-06T12:36:14.221Z,29.70
2017-07-06T12:38:41.836Z,29.70
2017-07-06T12:41:09.371Z,29.70
2017-07-06T12:43:36.921Z,29.70
2017-07-06T12:46:04.446Z,29.80
2017-07-06T12:48:32.402Z,29.70
2017-07-06T12:51:00.599Z,29.70
2017-07-06T12:53:28.159Z,29.50
2017-07-06T12:55:55.686Z,29.30
2017-07-06T12:58:23.224Z,29.20
2017-07-06T13:00:50.764Z,29.20
2017-07-06T13:03:18.316Z,29.10
2017-07-06T13:05:47.324Z,29.10
2017-07-06T13:08:14.844Z,29.10
2017-07-06T13:10:42.410Z,29.20
2017-07-06T13:13:09.944Z,29.30
2017-07-06T13:15:37.497Z,29.40
2017-07-06T13:18:05.432Z,29.50
2017-07-06T13:20:32.956Z,29.40
2017-07-06T13:23:00.524Z,29.30
2017-07-06T13:25:28.106Z,29.20
2017-07-06T13:27:55.679Z,29.10
2017-07-06T13:30:23.213Z,29.10
2017-07-06T13:32:50.749Z,29.10
2017-07-06T13:35:18.272Z,29.10
2017-07-06T13:37:45.858Z,29.10
2017-07-06T13:40:13.388Z,29.00
2017-07-06T13:42:41.321Z,28.70
2017-07-06T13:45:08.873Z,28.70
2017-07-06T13:47:36.581Z,28.70
2017-07-06T13:50:05.174Z,28.50
2017-07-06T13:52:32.709Z,28.50
2017-07-06T13:55:00.279Z,28.50
2017-07-06T13:57:27.842Z,28.40
2017-07-06T13:59:55.815Z,28.40
2017-07-06T14:02:23.360Z,28.40
2017-07-06T14:04:51.285Z,28.50
2017-07-06T14:07:18.846Z,28.50
2017-07-06T14:09:46.380Z,28.50
2017-07-06T14:12:13.976Z,28.40
2017-07-06T14:14:41.520Z,28.50
2017-07-06T14:17:09.082Z,28.40
2017-07-06T14:19:36.627Z,28.40
2017-07-06T14:22:04.292Z,28.40
2017-07-06T14:24:32.968Z,28.30
2017-07-06T14:27:00.507Z,28.20
2017-07-06T14:29:28.521Z,28.10
2017-07-06T14:31:56.037Z,28.10
2017-07-06T14:34:23.600Z,28.00
2017-07-06T14:36:51.135Z,27.90
2017-07-06T14:39:19.072Z,27.90
2017-07-06T14:41:46.656Z,27.90
2017-07-06T14:44:14.221Z,27.80
2017-07-06T14:46:41.787Z,27.70
2017-07-06T14:49:09.335Z,27.50
2017-07-06T14:51:37.298Z,27.20
2017-07-06T14:54:05.255Z,27.10
2017-07-06T14:56:32.829Z,27.10
2017-07-06T14:59:00.854Z,26.70
2017-07-06T15:01:28.614Z,26.80
2017-07-06T15:03:56.222Z,26.40
2017-07-06T15:06:24.149Z,25.20
2017-07-06T15:08:51.815Z,25.30
2017-07-06T15:11:19.361Z,24.80
2017-07-06T15:13:47.001Z,24.30
2017-07-06T15:16:17.943Z,23.90
2017-07-06T15:18:45.492Z,23.70
2017-07-06T15:21:13.187Z,23.40
2017-07-06T15:23:40.734Z,23.10
2017-07-06T15:26:08.289Z,22.80
2017-07-06T15:28:35.856Z,22.50
2017-07-06T15:31:05.202Z,22.20
2017-07-06T15:33:32.784Z,21.80
2017-07-06T15:36:00.340Z,21.50
2017-07-06T15:38:27.970Z,21.30
2017-07-06T15:40:55.626Z,21.10
2017-07-06T15:43:23.220Z,21.00
2017-07-06T15:45:50.765Z,20.80
2017-07-06T15:48:18.330Z,20.70
2017-07-06T15:50:45.889Z,20.60
2017-07-06T15:53:13.460Z,20.60
2017-07-06T15:55:41.035Z,20.70
2017-07-06T15:58:08.599Z,20.70
2017-07-06T16:00:36.203Z,20.70
2017-07-06T16:03:04.123Z,20.90
2017-07-06T16:05:31.684Z,20.90
2017-07-06T16:08:07.816Z,20.90
2017-07-06T16:10:35.375Z,21.00
2017-07-06T16:13:02.920Z,21.10
2017-07-06T16:15:30.464Z,21.10
2017-07-06T16:17:58.426Z,21.20
2017-07-06T16:20:26.368Z,21.30
2017-07-06T16:22:53.906Z,21.30
2017-07-06T16:25:21.440Z,21.40
2017-07-06T16:27:48.996Z,21.40
2017-07-06T16:30:16.540Z,21.40
2017-07-06T16:32:44.467Z,21.50
2017-07-06T16:35:12.033Z,21.50
2017-07-06T16:37:39.601Z,21.50
2017-07-06T16:40:07.173Z,21.60
2017-07-06T16:42:34.714Z,21.50
2017-07-06T16:45:02.292Z,21.60
2017-07-06T16:47:29.909Z,21.50
2017-07-06T16:49:57.437Z,21.50
2017-07-06T16:52:26.330Z,21.50
2017-07-06T16:54:53.912Z,21.40
2017-07-06T16:57:21.572Z,21.40
2017-07-06T16:59:49.116Z,21.40
2017-07-06T17:02:16.749Z,21.50
2017-07-06T17:04:44.739Z,21.50
2017-07-06T17:07:12.301Z,21.50
2017-07-06T17:09:39.992Z,21.50
2017-07-06T17:12:07.634Z,21.50
2017-07-06T17:14:36.070Z,21.50
2017-07-06T17:17:03.801Z,21.40
2017-07-06T17:19:31.542Z,21.40
2017-07-06T17:21:59.087Z,21.30
2017-07-06T17:24:26.625Z,21.20
2017-07-06T17:26:54.270Z,21.20
2017-07-06T17:29:21.903Z,21.20
2017-07-06T17:31:49.442Z,21.20
2017-07-06T17:34:18.273Z,21.10
2017-07-06T17:36:46.251Z,21.10
2017-07-06T17:39:13.803Z,21.10
2017-07-06T17:41:41.328Z,21.10
2017-07-06T17:44:11.371Z,21.10
2017-07-06T17:46:39.466Z,21.20
2017-07-06T17:49:07.042Z,21.20
2017-07-06T17:51:34.672Z,21.20
2017-07-06T17:54:02.246Z,21.20
2017-07-06T17:56:29.787Z,21.10
2017-07-06T17:58:59.004Z,21.10
2017-07-06T18:01:26.618Z,21.10
2017-07-06T18:03:54.208Z,21.10
2017-07-06T18:06:22.146Z,21.00
2017-07-06T18:08:51.519Z,21.10
2017-07-06T18:11:19.088Z,21.00
2017-07-06T18:13:46.616Z,20.90
2017-07-06T18:16:14.173Z,20.90
2017-07-06T18:18:41.733Z,20.90
2017-07-06T18:21:09.278Z,20.90
2017-07-06T18:23:37.353Z,20.90
2017-07-06T18:26:04.869Z,20.80
2017-07-06T18:28:32.433Z,20.80
2017-07-06T18:30:59.968Z,20.80
2017-07-06T18:33:27.516Z,20.80
2017-07-06T18:35:55.036Z,20.70
2017-07-06T18:38:22.985Z,20.60
2017-07-06T18:40:50.508Z,20.60
2017-07-06T18:43:18.088Z,20.60
2017-07-06T18:45:45.629Z,20.60
2017-07-06T18:48:13.163Z,20.70
2017-07-06T18:50:40.791Z,20.70
2017-07-06T18:53:08.486Z,20.70
2017-07-06T18:55:37.313Z,20.70
2017-07-06T18:58:05.257Z,20.70
2017-07-06T19:00:32.869Z,20.70
2017-07-06T19:03:00.825Z,20.70
2017-07-06T19:05:28.930Z,20.70
2017-07-06T19:07:56.510Z,20.70
2017-07-06T19:10:24.143Z,20.70
2017-07-06T19:12:51.687Z,20.60
2017-07-06T19:15:19.603Z,20.60
2017-07-06T19:17:47.215Z,20.60
2017-07-06T19:20:15.172Z,20.50
2017-07-06T19:22:43.096Z,20.50
2017-07-06T19:25:10.883Z,20.50
2017-07-06T19:27:38.420Z,20.40
2017-07-06T19:30:06.741Z,20.40
2017-07-06T19:32:35.365Z,20.40
2017-07-06T19:35:04.728Z,20.30
2017-07-06T19:37:32.305Z,20.30
2017-07-06T19:40:00.170Z,20.30
2017-07-06T19:42:27.738Z,20.20
2017-07-06T19:44:55.430Z,20.20
2017-07-06T19:47:22.974Z,20.20
2017-07-06T19:49:50.624Z,20.20
2017-07-06T19:52:18.160Z,20.10
2017-07-06T19:54:45.904Z,20.10
2017-07-06T19:57:13.890Z,20.00
2017-07-06T19:59:41.433Z,20.10
2017-07-06T20:02:09.016Z,20.00
2017-07-06T20:04:37.899Z,20.00
2017-07-06T20:07:06.573Z,19.90
2017-07-06T20:09:35.299Z,19.90
2017-07-06T20:12:03.005Z,19.90
2017-07-06T20:14:31.011Z,19.90
2017-07-06T20:16:59.048Z,19.90
2017-07-06T20:19:27.077Z,19.90
2017-07-06T20:21:54.598Z,19.90
2017-07-06T20:24:23.317Z,19.90
2017-07-06T20:26:50.890Z,19.90
2017-07-06T20:29:18.468Z,19.80
2017-07-06T20:31:51.830Z,19.90
2017-07-06T20:34:19.362Z,19.80
2017-07-06T20:36:46.901Z,19.90
2017-07-06T20:39:14.867Z,19.90
2017-07-06T20:41:44.801Z,19.90
2017-07-06T20:44:12.538Z,19.80
2017-07-06T20:46:41.559Z,19.90
2017-07-06T20:49:09.096Z,19.90
2017-07-06T20:51:37.284Z,19.90
2017-07-06T20:54:04.987Z,20.00
2017-07-06T20:56:32.572Z,20.00
2017-07-06T20:59:00.125Z,20.10
2017-07-06T21:01:31.487Z,20.20
2017-07-06T21:03:59.060Z,20.20
2017-07-06T21:06:30.487Z,20.20
2017-07-06T21:09:01.524Z,20.30
2017-07-06T21:11:29.069Z,20.30
2017-07-06T21:13:59.529Z,20.30
2017-07-06T21:16:29.561Z,20.30
2017-07-06T21:18:57.095Z,20.30
2017-07-06T21:21:24.687Z,20.30
2017-07-06T21:23:52.224Z,20.30
2017-07-06T21:26:25.051Z,20.20
2017-07-06T21:28:52.601Z,20.30
2017-07-06T21:31:20.153Z,20.20
2017-07-06T21:33:47.691Z,20.30
2017-07-06T21:36:15.236Z,20.20
2017-07-06T21:38:42.803Z,20.20
2017-07-06T21:41:10.367Z,20.20
2017-07-06T21:43:37.919Z,20.20
2017-07-06T21:46:05.855Z,20.20
2017-07-06T21:48:33.394Z,20.20
2017-07-06T21:51:00.928Z,20.20
2017-07-06T21:53:28.453Z,20.20
2017-07-06T21:55:56.395Z,20.40
2017-07-06T21:58:23.925Z,20.40
2017-07-06T22:00:53.005Z,20.30
2017-07-06T22:03:20.549Z,20.30
2017-07-06T22:05:48.123Z,20.30
2017-07-06T22:08:18.535Z,20.20
2017-07-06T22:10:46.093Z,20.30
2017-07-06T22:13:13.628Z,20.30
2017-07-06T22:15:44.872Z,20.30
2017-07-06T22:18:12.600Z,20.30
2017-07-06T22:20:40.234Z,20.30
2017-07-06T22:23:08.214Z,20.30
2017-07-06T22:25:35.744Z,20.30
2017-07-06T22:28:08.241Z,20.30
2017-07-06T22:30:35.770Z,20.40
2017-07-06T22:33:03.317Z,20.40
2017-07-06T22:35:32.029Z,20.40
2017-07-06T22:37:59.565Z,20.30
2017-07-06T22:40:30.082Z,20.30
2017-07-06T22:42:57.637Z,20.30
2017-07-06T22:45:25.593Z,20.20
2017-07-06T22:47:53.125Z,20.20
2017-07-06T22:50:21.120Z,20.20
2017-07-06T22:52:48.681Z,20.20
2017-07-06T22:55:16.341Z,20.10
2017-07-06T22:57:43.876Z,20.10
2017-07-06T23:00:11.403Z,20.10
2017-07-06T23:02:38.974Z,20.10
2017-07-06T23:05:07.893Z,20.10
2017-07-06T23:07:36.117Z,20.10
2017-07-06T23:10:03.649Z,20.00
2017-07-06T23:12:31.628Z,20.10
2017-07-06T23:15:01.167Z,20.10
2017-07-06T23:17:32.631Z,20.10
2017-07-06T23:20:00.187Z,20.10
2017-07-06T23:22:29.172Z,20.10
2017-07-06T23:25:00.461Z,20.10
2017-07-06T23:27:28.413Z,20.20
2017-07-06T23:29:55.956Z,20.20
2017-07-06T23:32:23.482Z,20.30
2017-07-06T23:34:51.081Z,20.30
2017-07-06T23:37:22.196Z,20.40
2017-07-06T23:39:49.786Z,20.40
2017-07-06T23:42:17.313Z,20.40
2017-07-06T23:44:44.850Z,20.40
2017-07-06T23:47:12.411Z,20.40
2017-07-06T23:49:40.080Z,20.30
2017-07-06T23:52:07.641Z,20.30
2017-07-06T23:54:35.212Z,20.20
2017-07-06T23:57:02.773Z,20.20
2017-07-06T23:59:30.314Z,20.10
